PDT,Max TemperatureF,Mean TemperatureF,Min TemperatureF,Max Dew PointF,MeanDew PointF,Min DewpointF,Max Humidity, Mean Humidity, Min Humidity, Max Sea Level PressureIn, Mean Sea Level PressureIn, Min Sea Level PressureIn, Max VisibilityMiles, Mean VisibilityMiles, Min VisibilityMiles, Max Wind SpeedMPH, Mean Wind SpeedMPH, Max Gust SpeedMPH,PrecipitationIn, CloudCover, Events, WindDirDegrees
2013-4-1,69,61,52,54,51,47,93,73,52,30.15,30.12,30.07,10,8,0,10,2,15,0.03,5,Fog,222
2013-4-2,73,60,46,54,49,44,93,67,41,30.17,30.12,30.06,10,10,9,10,4,14,0.00,0,,253
2013-4-3,77,63,48,52,49,45,89,64,38,30.13,30.06,29.97,10,10,8,7,2,9,0.00,0,,191
2013-4-4,65,59,52,57,52,40,96,72,47,30.11,30.07,29.97,10,6,2,20,9,30,0.61,6,Rain,168
2013-4-5,68,59,49,53,50,48,93,74,55,30.16,30.13,30.10,10,10,10,14,6,20,0.00,2,,205
2013-4-6,68,60,52,54,51,48,83,69,55,30.19,30.15,30.09,10,10,10,14,5,16,0.00,5,,199
2013-4-7,67,59,50,52,47,43,89,71,52,30.14,30.00,29.80,10,10,10,21,7,26,T,3,Rain,200
2013-4-8,68,59,49,48,35,25,77,50,22,30.01,29.86,29.75,10,10,9,37,13,47,T,2,Rain,315
2013-4-9,76,63,50,37,32,29,50,35,19,30.08,30.05,30.02,10,10,10,28,15,36,0.00,0,,333
2013-4-10,86,68,50,54,45,37,63,45,27,30.18,30.07,29.96,10,10,10,14,6,17,0.00,0,,304
2013-4-11,79,65,51,51,41,28,83,50,16,29.98,29.91,29.81,10,10,10,20,7,24,0.00,0,,298
2013-4-12,81,63,45,53,44,37,89,55,21,29.89,29.83,29.78,10,10,10,10,4,15,0.00,0,,244
2013-4-13,77,63,48,50,46,43,80,57,33,29.88,29.82,29.76,10,10,10,8,4,10,0.00,0,,191
2013-4-14,73,59,45,44,38,27,77,48,19,29.90,29.83,29.74,10,10,10,17,5,22,0.00,0,,254
2013-4-15,65,55,44,45,40,29,92,66,39,29.91,29.85,29.78,10,10,8,30,5,37,0.00,4,Rain,108
2013-4-16,68,58,47,29,25,21,46,32,17,30.16,30.03,29.92,10,10,10,26,14,35,0.00,0,,338
2013-4-17,70,58,46,31,26,21,53,35,16,30.26,30.21,30.17,10,10,10,25,14,33,0.00,0,,334
2013-4-18,77,61,45,39,31,25,53,34,15,30.27,30.22,30.17,10,10,10,12,6,28,0.00,0,,327
2013-4-19,82,64,45,50,43,39,76,52,28,30.24,30.16,30.03,10,10,10,9,2,14,0.00,0,,176
2013-4-20,85,72,58,44,36,23,43,27,11,30.10,30.03,29.94,10,10,10,18,10,25,0.00,0,,315
2013-4-21,88,68,47,49,43,35,86,51,16,30.04,29.97,29.90,10,10,10,14,3,18,0.00,0,,342
2013-4-22,89,72,54,48,37,24,77,43,9,29.96,29.90,29.82,10,10,10,21,7,25,0.00,0,,331
2013-4-23,85,72,59,43,28,21,22,16,10,29.93,29.87,29.81,10,10,10,23,13,31,0.00,0,,313
2013-4-24,90,69,47,50,40,26,80,46,11,29.86,29.82,29.74,10,10,10,13,6,18,0.00,0,,281
2013-4-25,73,62,50,50,46,44,80,61,41,30.08,29.99,29.87,10,10,10,15,8,21,0.00,0,,203
2013-4-26,81,65,48,51,47,45,86,60,33,30.20,30.14,30.09,10,10,10,10,4,14,0.00,0,,191
2013-4-27,88,69,50,54,49,46,86,57,27,30.21,30.12,30.02,10,10,10,8,3,10,0.00,0,,193
2013-4-28,92,72,52,56,48,38,83,50,16,30.04,29.95,29.84,10,10,10,13,2,17,0.00,0,,308
2013-4-29,93,76,58,52,45,36,72,43,14,29.88,29.81,29.72,10,10,10,18,5,24,0.00,0,,327
2013-4-30,84,74,64,44,27,18,38,25,12,29.83,29.79,29.74,10,10,6,28,17,37,0.00,1,,330